Time;durP1;ratioP1;P1;durP2;ratioP2;P2;SDS_P1;SDS_P2;PMS_P1;PMS_P2;Temp;Humidity;BMP_temperature;BMP_pressure;BME280_temperature;BME280_humidity;BME280_pressure;Samples;Min_cycle;Max_cycle;Signal;HPM_P1;HPM_P2
2022/06/29 00:00:12;;;;;;;1.55;1.20;;;19.50;99.90;;;;;;4947548;28;20206;-80
2022/06/29 00:02:39;;;;;;;2.50;1.35;;;19.50;99.90;;;;;;4949323;28;20222;-79
2022/06/29 00:05:08;;;;;;;1.80;1.27;;;19.50;99.90;;;;;;4948209;28;20201;-80
2022/06/29 00:07:35;;;;;;;1.73;1.40;;;19.50;99.90;;;;;;4947337;28;20210;-80
2022/06/29 00:10:05;;;;;;;1.60;1.35;;;19.50;99.90;;;;;;4951064;28;20202;-80
2022/06/29 00:12:32;;;;;;;2.03;1.77;;;19.40;99.90;;;;;;4970247;28;20197;-82
2022/06/29 00:15:02;;;;;;;1.40;1.15;;;19.40;99.90;;;;;;4980391;28;20220;-81
2022/06/29 00:17:31;;;;;;;2.42;1.30;;;19.30;99.90;;;;;;4968779;28;20178;-82
2022/06/29 00:19:58;;;;;;;2.78;1.45;;;19.30;99.90;;;;;;4978616;28;20209;-81
2022/06/29 00:22:26;;;;;;;1.75;1.25;;;19.30;99.90;;;;;;4967883;28;20203;-81
2022/06/29 00:24:53;;;;;;;1.10;1.10;;;19.30;99.90;;;;;;4970118;28;20226;-82
2022/06/29 00:27:22;;;;;;;1.38;1.10;;;19.30;99.90;;;;;;5351740;23;20240;-78
2022/06/29 00:29:50;;;;;;;0.98;0.90;;;19.30;99.90;;;;;;4980886;28;20214;-76
2022/06/29 00:32:17;;;;;;;1.20;1.10;;;19.30;99.90;;;;;;4973436;28;20274;-78
2022/06/29 00:34:45;;;;;;;3.30;1.42;;;19.30;99.90;;;;;;4976864;28;20205;-77
2022/06/29 00:37:13;;;;;;;2.78;1.33;;;19.40;99.90;;;;;;4968800;28;20221;-75
2022/06/29 00:39:40;;;;;;;1.30;1.20;;;19.30;99.90;;;;;;4966504;28;20218;-76
2022/06/29 00:42:08;;;;;;;1.77;1.15;;;19.30;99.90;;;;;;4970755;28;20265;-77
2022/06/29 00:44:39;;;;;;;1.25;0.90;;;19.40;99.90;;;;;;4973342;28;20202;-77
2022/06/29 00:47:07;;;;;;;2.90;1.52;;;19.40;99.90;;;;;;4967439;28;20180;-76
2022/06/29 00:49:36;;;;;;;1.55;1.20;;;19.40;99.90;;;;;;4963263;28;20309;-77
2022/06/29 00:52:09;;;;;;;1.30;1.20;;;19.40;99.90;;;;;;4968925;28;20221;-77
2022/06/29 00:54:40;;;;;;;1.83;1.23;;;19.40;99.90;;;;;;4969068;28;20199;-76
2022/06/29 00:57:10;;;;;;;1.45;1.08;;;19.40;99.90;;;;;;4969067;28;20216;-76
2022/06/29 00:59:44;;;;;;;2.40;1.50;;;19.50;99.90;;;;;;4974785;28;20225;-76
2022/06/29 01:02:12;;;;;;;1.75;1.10;;;19.50;99.90;;;;;;4966294;28;20201;-77
2022/06/29 01:04:40;;;;;;;1.20;1.10;;;19.50;99.90;;;;;;4970304;28;20286;-76
2022/06/29 01:07:08;;;;;;;1.27;1.13;;;19.50;99.90;;;;;;4974385;28;20209;-75
2022/06/29 01:09:35;;;;;;;1.45;1.33;;;19.50;99.90;;;;;;4992862;28;20710;-77
2022/06/29 01:12:03;;;;;;;1.23;1.13;;;19.50;99.90;;;;;;4964313;28;20195;-76
2022/06/29 01:14:30;;;;;;;2.83;0.98;;;19.50;99.90;;;;;;4967558;28;20228;-76
2022/06/29 01:16:58;;;;;;;1.48;1.38;;;19.50;99.90;;;;;;4969455;28;20208;-76
2022/06/29 01:19:26;;;;;;;2.15;1.35;;;19.50;99.90;;;;;;4971665;23;20233;-76
2022/06/29 01:21:54;;;;;;;2.03;1.20;;;19.40;99.90;;;;;;4937782;28;20207;-77
2022/06/29 01:24:24;;;;;;;1.95;1.10;;;19.40;99.90;;;;;;4941056;28;20214;-76
2022/06/29 01:26:51;;;;;;;1.30;1.20;;;19.30;99.90;;;;;;4945255;28;20691;-76
2022/06/29 01:29:18;;;;;;;1.95;1.30;;;19.40;99.90;;;;;;4941573;28;20226;-76
2022/06/29 01:31:46;;;;;;;1.25;1.10;;;19.40;99.90;;;;;;4938213;28;20194;-76
2022/06/29 01:34:13;;;;;;;1.45;1.25;;;19.50;99.90;;;;;;4937329;29;20202;-75
2022/06/29 01:36:40;;;;;;;2.38;1.00;;;19.50;99.90;;;;;;4937244;29;20593;-77
2022/06/29 01:39:07;;;;;;;1.35;1.10;;;19.40;99.90;;;;;;4939599;28;20371;-76
2022/06/29 01:41:36;;;;;;;2.17;1.00;;;19.40;99.90;;;;;;4940608;28;20226;-77
2022/06/29 01:44:03;;;;;;;1.30;1.20;;;19.30;99.90;;;;;;4943013;28;20226;-76
2022/06/29 01:46:30;;;;;;;1.92;1.23;;;19.30;99.90;;;;;;4934513;28;20282;-77
2022/06/29 01:48:57;;;;;;;2.83;1.60;;;19.30;99.90;;;;;;4944634;28;22002;-76
2022/06/29 01:51:24;;;;;;;1.50;1.30;;;19.20;99.90;;;;;;4941251;28;20293;-76
2022/06/29 01:53:51;;;;;;;1.48;1.23;;;19.10;99.90;;;;;;4935001;28;20203;-76
2022/06/29 01:56:18;;;;;;;2.45;1.50;;;19.00;99.90;;;;;;4940034;29;20211;-77
2022/06/29 01:58:57;;;;;;;1.83;1.58;;;18.90;99.90;;;;;;4945021;28;20215;-76
2022/06/29 02:01:24;;;;;;;1.88;1.50;;;18.90;99.90;;;;;;4942494;28;20218;-76
2022/06/29 02:03:52;;;;;;;2.78;1.60;;;18.90;99.90;;;;;;4939470;28;20215;-76
2022/06/29 02:06:19;;;;;;;1.65;1.00;;;18.90;99.90;;;;;;4934657;28;20696;-77
2022/06/29 02:08:46;;;;;;;1.40;1.30;;;19.00;99.90;;;;;;4945546;28;20230;-76
2022/06/29 02:11:14;;;;;;;4.20;1.40;;;19.10;99.90;;;;;;4937438;28;20211;-76
2022/06/29 02:13:41;;;;;;;1.83;1.45;;;19.00;99.90;;;;;;4935091;28;20201;-76
2022/06/29 02:16:09;;;;;;;2.42;1.33;;;19.00;99.90;;;;;;4937566;28;20203;-76
2022/06/29 02:18:37;;;;;;;1.23;1.10;;;19.10;99.90;;;;;;4952243;28;20207;-77
2022/06/29 02:21:04;;;;;;;2.25;1.38;;;19.10;99.90;;;;;;4938566;28;20231;-77
2022/06/29 02:23:31;;;;;;;1.80;1.10;;;19.10;99.90;;;;;;4935610;28;20252;-76
2022/06/29 02:25:58;;;;;;;1.88;0.90;;;19.10;99.90;;;;;;4939671;28;20217;-75
2022/06/29 02:28:25;;;;;;;1.33;1.23;;;19.20;99.90;;;;;;4942841;28;20198;-76
2022/06/29 02:36:22;;;;;;;1.60;1.20;;;19.10;99.90;;;;;;4936374;28;20213;-77
2022/06/29 02:38:49;;;;;;;2.92;1.30;;;19.10;99.90;;;;;;4937858;28;20219;-79
2022/06/29 02:41:17;;;;;;;1.75;1.20;;;19.10;99.90;;;;;;4937435;28;20218;-76
2022/06/29 02:43:45;;;;;;;1.35;1.25;;;19.10;99.90;;;;;;4932777;28;20206;-77
2022/06/29 02:46:12;;;;;;;1.48;1.38;;;19.10;99.90;;;;;;4941560;28;20250;-77
2022/06/29 02:48:40;;;;;;;2.08;1.30;;;19.10;99.90;;;;;;4936112;28;20634;-76
2022/06/29 02:51:08;;;;;;;1.58;1.25;;;19.10;99.90;;;;;;4941151;28;20211;-75
2022/06/29 02:53:35;;;;;;;2.25;1.55;;;19.00;99.90;;;;;;4938510;28;20238;-74
2022/06/29 02:56:02;;;;;;;1.42;1.30;;;19.00;99.90;;;;;;4941249;28;20214;-76
2022/06/29 02:58:29;;;;;;;1.98;1.60;;;19.10;99.90;;;;;;4938725;28;20198;-76
2022/06/29 03:00:56;;;;;;;1.95;1.27;;;19.10;99.90;;;;;;4949208;28;20198;-75
2022/06/29 03:03:23;;;;;;;1.80;1.20;;;19.10;99.90;;;;;;4942275;29;20233;-77
2022/06/29 03:05:52;;;;;;;1.60;1.50;;;19.00;99.90;;;;;;4937104;28;20213;-77
2022/06/29 03:08:19;;;;;;;3.35;1.77;;;19.00;99.90;;;;;;4950069;28;20209;-75
2022/06/29 03:10:46;;;;;;;2.13;1.42;;;18.90;99.90;;;;;;4950103;28;20213;-77
2022/06/29 03:13:13;;;;;;;1.88;1.45;;;18.80;99.90;;;;;;4942788;28;20645;-75
2022/06/29 03:15:40;;;;;;;1.70;1.23;;;18.80;99.90;;;;;;4936095;28;20626;-76
2022/06/29 03:18:08;;;;;;;3.10;1.42;;;18.80;99.90;;;;;;4937848;28;20225;-76
2022/06/29 03:20:35;;;;;;;1.60;1.40;;;18.80;99.90;;;;;;4940139;28;20234;-76
2022/06/29 03:23:03;;;;;;;2.10;1.40;;;18.80;99.90;;;;;;4941275;28;20230;-76
2022/06/29 03:25:30;;;;;;;3.92;1.65;;;18.90;99.90;;;;;;4939097;28;20203;-76
2022/06/29 03:27:57;;;;;;;1.48;1.38;;;18.90;99.90;;;;;;4942204;28;20641;-76
2022/06/29 03:30:24;;;;;;;2.03;1.10;;;18.90;99.90;;;;;;4941523;29;20731;-76
2022/06/29 03:32:51;;;;;;;3.05;1.40;;;18.90;99.90;;;;;;4942890;28;20198;-77
2022/06/29 03:35:18;;;;;;;3.17;1.48;;;18.90;99.90;;;;;;4939284;28;20202;-75
2022/06/29 03:37:46;;;;;;;2.83;1.50;;;18.80;99.90;;;;;;4941241;28;20214;-76
2022/06/29 03:40:14;;;;;;;1.67;1.58;;;18.80;99.90;;;;;;4940719;28;21679;-75
2022/06/29 03:42:41;;;;;;;1.45;1.20;;;18.90;99.90;;;;;;4939260;28;20591;-76
2022/06/29 03:45:09;;;;;;;1.58;1.48;;;18.90;99.90;;;;;;4941467;29;20256;-75
2022/06/29 03:47:36;;;;;;;1.63;1.23;;;18.90;99.90;;;;;;4942308;28;20679;-77
2022/06/29 03:50:04;;;;;;;1.38;1.27;;;18.80;99.90;;;;;;4943363;28;20748;-76
2022/06/29 03:52:31;;;;;;;1.75;1.35;;;18.80;99.90;;;;;;4942646;28;20616;-77
2022/06/29 03:54:58;;;;;;;2.17;1.42;;;18.80;99.90;;;;;;4936274;28;20677;-76
2022/06/29 03:57:26;;;;;;;1.45;1.35;;;18.80;99.90;;;;;;4935359;28;20207;-76
2022/06/29 03:59:53;;;;;;;1.50;1.40;;;18.80;99.90;;;;;;4945150;28;20233;-77
2022/06/29 04:02:20;;;;;;;1.90;1.70;;;18.80;99.90;;;;;;4951522;28;20215;-76
2022/06/29 04:04:47;;;;;;;2.33;1.55;;;18.90;99.90;;;;;;4949968;28;20226;-75
2022/06/29 04:07:14;;;;;;;1.98;1.25;;;18.90;99.90;;;;;;4946143;28;20561;-76
2022/06/29 04:09:41;;;;;;;1.38;1.27;;;18.90;99.90;;;;;;4947964;28;20234;-76
2022/06/29 04:12:09;;;;;;;1.92;1.55;;;18.90;99.90;;;;;;4945300;28;20194;-75
2022/06/29 04:14:38;;;;;;;2.17;1.40;;;18.90;99.90;;;;;;4940576;28;20205;-75
2022/06/29 04:17:05;;;;;;;2.75;1.75;;;18.90;99.90;;;;;;4938999;28;20230;-76
2022/06/29 04:19:32;;;;;;;1.50;1.40;;;18.80;99.90;;;;;;4941207;28;20742;-75
2022/06/29 04:21:59;;;;;;;1.45;1.30;;;18.80;99.90;;;;;;4938575;28;20218;-76
2022/06/29 04:24:26;;;;;;;1.50;1.40;;;18.90;99.90;;;;;;4953316;28;20223;-76
2022/06/29 04:26:54;;;;;;;1.60;1.08;;;18.90;99.90;;;;;;4946066;28;20198;-76
2022/06/29 04:29:21;;;;;;;1.50;1.40;;;18.90;99.90;;;;;;4948462;28;20225;-74
2022/06/29 04:31:49;;;;;;;1.90;1.30;;;18.90;99.90;;;;;;4949061;28;20226;-76
2022/06/29 04:34:16;;;;;;;2.03;1.45;;;19.00;99.90;;;;;;4948803;28;20190;-76
2022/06/29 04:36:43;;;;;;;1.20;1.10;;;19.00;99.90;;;;;;4942003;28;20720;-74
2022/06/29 04:39:10;;;;;;;2.50;1.48;;;19.00;99.90;;;;;;4952795;28;20215;-76
2022/06/29 04:41:37;;;;;;;3.35;1.40;;;19.10;99.90;;;;;;4941694;29;20211;-76
2022/06/29 04:44:05;;;;;;;2.15;1.63;;;19.10;99.90;;;;;;4938329;28;20225;-76
2022/06/29 04:46:32;;;;;;;1.98;1.50;;;19.20;99.90;;;;;;4939611;28;20215;-75
2022/06/29 04:49:02;;;;;;;1.42;1.33;;;19.20;99.90;;;;;;4947362;28;20234;-76
2022/06/29 04:51:30;;;;;;;1.55;1.30;;;19.20;99.90;;;;;;4950929;28;20665;-76
2022/06/29 04:53:58;;;;;;;1.50;1.40;;;19.20;99.90;;;;;;4943562;28;20197;-77
2022/06/29 04:56:28;;;;;;;1.58;1.40;;;19.20;99.90;;;;;;4951471;28;20207;-76
2022/06/29 04:58:56;;;;;;;1.20;1.10;;;19.20;99.90;;;;;;4948855;28;20264;-77
2022/06/29 05:01:24;;;;;;;1.40;1.27;;;19.30;99.90;;;;;;4946251;28;20206;-77
2022/06/29 05:03:52;;;;;;;1.85;1.20;;;19.30;99.90;;;;;;4949286;29;20584;-77
2022/06/29 05:06:21;;;;;;;3.95;1.73;;;19.40;99.90;;;;;;4954748;28;20199;-77
2022/06/29 05:08:48;;;;;;;2.53;1.33;;;19.30;99.90;;;;;;4949000;29;20342;-77
2022/06/29 05:11:17;;;;;;;4.55;1.60;;;19.20;99.90;;;;;;4948696;28;20667;-77
2022/06/29 05:13:45;;;;;;;2.22;1.75;;;19.20;99.90;;;;;;4946257;28;20195;-76
2022/06/29 05:16:12;;;;;;;2.47;1.58;;;19.20;99.90;;;;;;4944794;29;20229;-76
2022/06/29 05:18:39;;;;;;;1.30;1.20;;;19.30;99.90;;;;;;4945068;29;20230;-76
2022/06/29 05:21:09;;;;;;;1.25;1.15;;;19.40;99.90;;;;;;4943335;28;20210;-76
2022/06/29 05:23:37;;;;;;;2.05;1.30;;;19.50;99.90;;;;;;4947071;28;20673;-74
2022/06/29 05:26:04;;;;;;;3.05;1.55;;;19.50;99.90;;;;;;4947443;28;20203;-76
2022/06/29 05:28:33;;;;;;;2.30;1.50;;;19.60;99.90;;;;;;4946260;28;20580;-75
2022/06/29 05:31:00;;;;;;;1.58;1.30;;;19.60;99.90;;;;;;4945839;28;20210;-76
2022/06/29 05:33:35;;;;;;;1.83;1.38;;;19.60;99.90;;;;;;4950055;28;20677;-76
2022/06/29 05:36:03;;;;;;;2.13;1.42;;;19.60;99.90;;;;;;4942636;28;20202;-76
2022/06/29 05:38:31;;;;;;;2.47;1.30;;;19.70;99.90;;;;;;4940082;28;20290;-76
2022/06/29 05:41:00;;;;;;;2.08;1.52;;;19.70;99.90;;;;;;4942814;28;20198;-75
2022/06/29 05:43:28;;;;;;;1.42;1.20;;;19.70;99.90;;;;;;4944174;28;20705;-78
2022/06/29 05:45:55;;;;;;;2.72;1.42;;;19.70;99.90;;;;;;4946071;28;20206;-77
2022/06/29 05:48:22;;;;;;;1.30;1.20;;;19.70;99.90;;;;;;4957619;28;20697;-76
2022/06/29 05:50:49;;;;;;;1.52;1.35;;;19.70;99.90;;;;;;4939807;28;20205;-76
2022/06/29 05:53:17;;;;;;;1.30;1.20;;;19.80;99.90;;;;;;4938174;28;20209;-77
2022/06/29 05:55:45;;;;;;;2.08;1.42;;;19.80;99.90;;;;;;4934204;29;20198;-74
2022/06/29 05:58:18;;;;;;;2.28;1.33;;;19.80;99.90;;;;;;4935114;29;20490;-75
2022/06/29 06:00:46;;;;;;;2.35;1.55;;;19.80;99.90;;;;;;4941257;28;20198;-75
2022/06/29 06:03:13;;;;;;;1.40;1.30;;;19.80;99.90;;;;;;4945710;28;20581;-75
2022/06/29 06:05:40;;;;;;;1.45;1.27;;;19.80;99.90;;;;;;4946867;28;20889;-77
2022/06/29 06:08:07;;;;;;;2.08;1.50;;;19.80;99.90;;;;;;4939202;28;20582;-75
2022/06/29 06:10:34;;;;;;;1.65;1.55;;;19.80;99.90;;;;;;4936459;28;20230;-76
2022/06/29 06:13:05;;;;;;;1.73;1.30;;;19.90;99.90;;;;;;4930807;28;20211;-77
2022/06/29 06:15:33;;;;;;;3.65;1.52;;;19.90;99.90;;;;;;4935906;28;20653;-75
2022/06/29 06:18:01;;;;;;;1.60;1.50;;;19.90;99.90;;;;;;4942950;28;20208;-76
2022/06/29 06:20:29;;;;;;;3.50;2.15;;;19.80;99.90;;;;;;4932426;28;20226;-77
2022/06/29 06:22:56;;;;;;;2.00;1.60;;;19.60;99.90;;;;;;4930817;28;20289;-75
2022/06/29 06:25:23;;;;;;;1.90;1.70;;;19.30;99.90;;;;;;4941098;28;20233;-77
2022/06/29 06:27:50;;;;;;;1.95;1.67;;;19.10;99.90;;;;;;4934350;28;20294;-75
2022/06/29 06:30:17;;;;;;;4.28;1.60;;;19.00;99.90;;;;;;4938040;28;20743;-77
2022/06/29 06:32:46;;;;;;;2.50;1.77;;;18.90;99.90;;;;;;4949790;28;20599;-75
2022/06/29 06:35:13;;;;;;;1.52;1.42;;;18.90;99.90;;;;;;4937063;28;20233;-75
2022/06/29 06:37:40;;;;;;;2.88;1.48;;;19.00;99.90;;;;;;4939198;28;20654;-76
2022/06/29 06:42:53;;;;;;;2.47;1.80;;;18.90;99.90;;;;;;4939471;28;20224;-76
2022/06/29 06:45:20;;;;;;;2.80;1.80;;;18.80;99.90;;;;;;4942157;28;20214;-77
2022/06/29 06:47:49;;;;;;;2.58;1.60;;;18.80;99.90;;;;;;4943535;28;20203;-74
2022/06/29 06:50:16;;;;;;;2.03;1.67;;;18.70;99.90;;;;;;4939941;28;20226;-77
2022/06/29 06:52:43;;;;;;;1.60;1.20;;;18.80;99.90;;;;;;4950145;28;20232;-76
2022/06/29 06:55:10;;;;;;;2.28;1.40;;;19.00;99.90;;;;;;4938892;28;20207;-76
2022/06/29 06:57:38;;;;;;;1.45;1.35;;;19.10;99.90;;;;;;4945693;28;20225;-76
2022/06/29 07:00:06;;;;;;;1.58;1.48;;;19.20;99.90;;;;;;4943159;29;20429;-76
2022/06/29 07:02:33;;;;;;;1.80;1.70;;;19.30;99.90;;;;;;4943425;28;20213;-77
2022/06/29 07:05:02;;;;;;;1.27;1.17;;;19.40;99.90;;;;;;4938050;28;20230;-76
2022/06/29 07:07:29;;;;;;;2.85;1.58;;;19.50;99.90;;;;;;4943241;28;20917;-76
2022/06/29 07:09:56;;;;;;;1.38;1.27;;;19.60;99.90;;;;;;4938291;28;20593;-75
2022/06/29 07:12:23;;;;;;;2.17;1.60;;;19.70;99.90;;;;;;4935883;28;20467;-77
2022/06/29 07:14:50;;;;;;;2.10;1.48;;;19.80;99.90;;;;;;4932638;29;20265;-76
2022/06/29 07:17:17;;;;;;;3.08;1.80;;;19.80;99.90;;;;;;4936400;28;20745;-77
2022/06/29 07:19:44;;;;;;;3.38;1.92;;;19.90;99.90;;;;;;4994393;23;20358;-77
2022/06/29 07:22:13;;;;;;;3.78;1.63;;;19.90;99.90;;;;;;4969317;28;20212;-77
2022/06/29 07:24:40;;;;;;;3.00;1.90;;;19.80;99.90;;;;;;4976045;28;20248;-78
2022/06/29 07:27:08;;;;;;;5.43;2.70;;;19.50;99.90;;;;;;4968457;28;20209;-77
2022/06/29 07:29:35;;;;;;;4.15;2.33;;;19.20;99.90;;;;;;4967963;28;20218;-77
2022/06/29 07:32:02;;;;;;;4.07;2.22;;;19.00;99.90;;;;;;4966834;28;20213;-77
2022/06/29 07:34:29;;;;;;;3.13;1.70;;;19.10;99.90;;;;;;4965515;28;20657;-77
2022/06/29 07:36:56;;;;;;;3.75;2.10;;;19.50;99.90;;;;;;4963777;28;20792;-77
2022/06/29 07:39:25;;;;;;;2.50;2.00;;;19.90;99.90;;;;;;4962691;28;20246;-79
2022/06/29 07:41:52;;;;;;;2.35;1.77;;;20.10;99.90;;;;;;4973226;28;20225;-77
2022/06/29 07:44:19;;;;;;;2.63;1.58;;;20.30;99.90;;;;;;4978123;28;20198;-78
2022/06/29 07:46:46;;;;;;;1.48;1.38;;;20.40;99.90;;;;;;4969424;28;20293;-77
2022/06/29 07:49:13;;;;;;;2.92;1.63;;;20.40;99.90;;;;;;4972338;28;20233;-77
2022/06/29 07:51:40;;;;;;;1.90;1.70;;;20.50;99.90;;;;;;4972586;28;20332;-80
2022/06/29 07:54:07;;;;;;;3.42;1.77;;;20.60;99.90;;;;;;4975873;28;20216;-78
2022/06/29 07:56:36;;;;;;;5.15;2.33;;;20.60;99.90;;;;;;4974180;28;20233;-78
2022/06/29 07:59:03;;;;;;;5.30;2.22;;;20.30;99.90;;;;;;4979785;28;20213;-79
2022/06/29 08:01:30;;;;;;;2.15;1.75;;;20.00;99.90;;;;;;4978135;28;20284;-78
2022/06/29 08:03:57;;;;;;;4.05;2.10;;;19.90;99.90;;;;;;4969712;28;20209;-79
2022/06/29 08:06:25;;;;;;;1.75;1.65;;;20.00;99.90;;;;;;4971872;28;20222;-77
2022/06/29 08:08:53;;;;;;;4.13;2.28;;;20.20;99.90;;;;;;4980810;28;20691;-77
2022/06/29 08:11:22;;;;;;;2.00;1.80;;;20.50;99.90;;;;;;4977295;28;20231;-79
2022/06/29 08:13:50;;;;;;;1.98;1.40;;;20.70;99.90;;;;;;4970816;28;20199;-78
2022/06/29 08:16:17;;;;;;;3.47;1.80;;;20.80;99.90;;;;;;4970926;28;20213;-78
2022/06/29 08:18:44;;;;;;;3.17;1.70;;;21.00;99.90;;;;;;4980283;28;20194;-78
2022/06/29 08:25:05;;;;;;;1.65;1.48;;;21.00;99.90;;;;;;4960212;28;20264;-78
2022/06/29 08:28:14;;;;;;;2.28;1.70;;;20.90;99.90;;;;;;4952864;28;20525;-78
2022/06/29 08:37:56;;;;;;;7.32;2.30;;;21.00;99.90;;;;;;4971726;28;20209;-77
2022/06/29 08:50:25;;;;;;;2.35;2.00;;;21.10;99.90;;;;;;4972712;28;20600;-77
2022/06/29 08:53:43;;;;;;;1.67;1.45;;;21.20;99.90;;;;;;4948886;28;20265;-80
2022/06/29 08:56:21;;;;;;;2.53;2.08;;;21.20;99.90;;;;;;4949801;28;20353;-79
2022/06/29 09:02:08;;;;;;;2.42;2.20;;;21.20;99.90;;;;;;4944518;28;20332;-78
2022/06/29 09:11:59;;;;;;;4.85;2.85;;;20.60;99.90;;;;;;4973356;28;20329;-80
2022/06/29 09:15:31;;;;;;;3.70;2.45;;;20.40;99.90;;;;;;4951046;28;20700;-80
2022/06/29 09:21:29;;;;;;;1.95;1.70;;;20.50;99.90;;;;;;4934703;28;20222;-79
2022/06/29 09:24:20;;;;;;;4.53;2.20;;;20.60;99.90;;;;;;4976449;28;20425;-78
2022/06/29 09:27:00;;;;;;;2.65;2.45;;;20.70;99.90;;;;;;4960896;28;20229;-78
2022/06/29 09:29:30;;;;;;;2.42;2.22;;;20.90;99.90;;;;;;4974167;28;20225;-79
2022/06/29 09:32:28;;;;;;;3.60;2.05;;;20.90;99.90;;;;;;4959687;28;20222;-79
2022/06/29 09:35:16;;;;;;;4.55;2.30;;;21.10;99.90;;;;;;4960052;28;20200;-78
2022/06/29 09:37:45;;;;;;;2.33;2.10;;;21.10;99.90;;;;;;4966725;28;20223;-78
2022/06/29 09:40:13;;;;;;;2.50;1.88;;;21.20;99.90;;;;;;4957941;28;20236;-77
2022/06/29 09:42:40;;;;;;;3.22;2.08;;;21.20;99.90;;;;;;4979269;28;20445;-78
2022/06/29 09:45:08;;;;;;;1.83;1.65;;;21.20;99.90;;;;;;4980525;28;20249;-79
2022/06/29 09:47:39;;;;;;;4.60;2.08;;;21.30;99.90;;;;;;4968577;28;20226;-78
2022/06/29 09:50:10;;;;;;;3.85;2.30;;;21.40;99.90;;;;;;4972611;28;20233;-79
2022/06/29 09:52:39;;;;;;;2.10;1.80;;;21.50;99.90;;;;;;4970384;28;20256;-79
2022/06/29 09:55:11;;;;;;;3.00;1.80;;;21.70;99.90;;;;;;4974711;28;20229;-79
2022/06/29 09:57:50;;;;;;;2.20;1.92;;;21.70;99.90;;;;;;4969978;28;20230;-78
2022/06/29 10:03:08;;;;;;;6.28;2.17;;;21.90;99.90;;;;;;4962397;28;20234;-78
2022/06/29 10:08:16;;;;;;;3.70;2.58;;;22.10;99.90;;;;;;4975194;28;20759;-78
2022/06/29 10:13:43;;;;;;;3.38;2.10;;;22.20;99.90;;;;;;4972137;28;20403;-78
2022/06/29 10:16:20;;;;;;;2.00;1.90;;;22.30;99.90;;;;;;4972776;28;20293;-78
2022/06/29 10:19:21;;;;;;;2.47;2.28;;;22.40;99.90;;;;;;4973198;28;20166;-78
2022/06/29 10:21:49;;;;;;;2.67;2.20;;;22.50;99.90;;;;;;4962350;28;20381;-78
2022/06/29 10:24:18;;;;;;;3.47;2.15;;;22.80;99.90;;;;;;4982670;28;20206;-78
2022/06/29 10:26:49;;;;;;;1.67;1.58;;;23.00;99.90;;;;;;4970172;28;20716;-78
2022/06/29 10:29:33;;;;;;;5.03;2.10;;;23.20;99.90;;;;;;4966785;28;20218;-78
2022/06/29 10:32:12;;;;;;;4.07;2.00;;;23.40;99.90;;;;;;4967932;28;20218;-78
2022/06/29 10:37:23;;;;;;;3.25;2.30;;;23.40;99.90;;;;;;4955092;28;20693;-79
2022/06/29 10:39:55;;;;;;;3.38;2.05;;;23.60;99.90;;;;;;4953221;28;20233;-77
2022/06/29 10:45:21;;;;;;;4.50;2.38;;;24.10;99.90;;;;;;4945919;28;20253;-76
2022/06/29 10:48:13;;;;;;;4.72;2.35;;;24.40;99.90;;;;;;4946729;28;20323;-76
2022/06/29 10:50:42;;;;;;;5.15;2.33;;;24.70;99.90;;;;;;4948364;28;20312;-76
2022/06/29 10:53:11;;;;;;;6.55;2.92;;;25.00;99.90;;;;;;4949152;28;20217;-76
2022/06/29 10:55:40;;;;;;;4.63;2.85;;;25.40;99.90;;;;;;4948339;28;20371;-75
2022/06/29 10:58:08;;;;;;;4.00;2.50;;;25.50;99.90;;;;;;4946567;28;20565;-75
2022/06/29 11:00:39;;;;;;;5.18;3.00;;;25.50;99.90;;;;;;4955643;28;20688;-78
2022/06/29 11:03:11;;;;;;;4.28;2.35;;;25.40;99.90;;;;;;4948647;28;20333;-77
2022/06/29 11:12:01;;;;;;;5.68;2.78;;;25.50;99.90;;;;;;4955441;28;20327;-77
2022/06/29 11:14:02;;;;;;;4.70;2.55;;;25.40;99.90;;;;;;4957242;28;20307;-77
2022/06/29 11:16:31;;;;;;;7.85;2.88;;;25.60;99.90;;;;;;4959688;28;21360;-77
2022/06/29 11:18:59;;;;;;;6.15;3.13;;;25.80;99.90;;;;;;4955397;28;20420;-77
2022/06/29 11:21:31;;;;;;;6.40;2.78;;;25.80;99.90;;;;;;4954275;28;20423;-78
2022/06/29 11:24:04;;;;;;;5.65;2.80;;;26.00;99.90;;;;;;4954122;28;20672;-77
2022/06/29 11:26:32;;;;;;;5.40;3.10;;;26.10;99.90;;;;;;4956469;28;20229;-76
2022/06/29 11:29:00;;;;;;;4.63;2.70;;;26.20;99.90;;;;;;4955606;28;20190;-78
2022/06/29 11:31:27;;;;;;;4.60;2.90;;;26.30;99.90;;;;;;4959541;28;20225;-77
2022/06/29 11:33:56;;;;;;;6.18;3.00;;;26.30;99.90;;;;;;4953369;28;20198;-76
2022/06/29 11:36:26;;;;;;;5.80;3.28;;;26.30;99.90;;;;;;4954180;28;20258;-77
2022/06/29 11:38:56;;;;;;;4.60;2.63;;;26.30;99.90;;;;;;4950268;28;20210;-78
2022/06/29 11:41:25;;;;;;;4.05;3.03;;;26.50;99.90;;;;;;4951907;28;20226;-77
2022/06/29 11:44:03;;;;;;;3.00;2.13;;;26.70;99.90;;;;;;4950829;28;20201;-77
2022/06/29 11:46:32;;;;;;;3.53;2.13;;;26.80;99.90;;;;;;4951576;28;20234;-77
2022/06/29 11:51:52;;;;;;;4.05;2.95;;;26.80;99.90;;;;;;4959523;28;20241;-77
2022/06/29 11:54:35;;;;;;;5.28;3.30;;;27.00;99.90;;;;;;4951349;28;20201;-76
2022/06/29 11:57:06;;;;;;;5.45;2.70;;;26.70;99.90;;;;;;4955896;28;20736;-78
2022/06/29 11:59:33;;;;;;;4.32;2.60;;;26.40;99.90;;;;;;4953436;28;20217;-76
2022/06/29 12:02:01;;;;;;;6.55;3.05;;;26.50;99.90;;;;;;4958829;28;20840;-77
2022/06/29 12:04:30;;;;;;;6.50;3.13;;;26.70;99.90;;;;;;4955900;28;20206;-77
2022/06/29 12:07:08;;;;;;;6.53;3.15;;;26.90;99.90;;;;;;4956945;28;20253;-76
2022/06/29 12:09:38;;;;;;;7.28;3.38;;;27.30;99.90;;;;;;4956994;28;20217;-76
2022/06/29 12:12:07;;;;;;;4.53;3.00;;;27.40;99.90;;;;;;4958407;28;20712;-77
2022/06/29 12:14:34;;;;;;;5.00;2.92;;;27.60;99.90;;;;;;4958361;28;20248;-76
2022/06/29 12:17:02;;;;;;;5.22;2.92;;;27.80;99.90;;;;;;4960530;28;20236;-76
2022/06/29 12:19:29;;;;;;;4.53;2.90;;;27.80;99.90;;;;;;4959565;28;20221;-77
2022/06/29 12:21:57;;;;;;;3.33;2.40;;;27.60;99.90;;;;;;4951182;28;20226;-76
2022/06/29 12:24:25;;;;;;;7.72;2.95;;;27.60;99.90;;;;;;4959937;28;20208;-76
2022/06/29 12:26:54;;;;;;;8.75;3.03;;;27.70;99.90;;;;;;4955754;28;20720;-77
2022/06/29 12:29:21;;;;;;;4.60;2.88;;;27.70;99.90;;;;;;4954625;28;20620;-76
2022/06/29 12:31:49;;;;;;;6.25;3.10;;;27.70;99.90;;;;;;4956005;28;20238;-77
2022/06/29 12:34:17;;;;;;;5.15;3.05;;;27.80;99.90;;;;;;4958906;28;20596;-77
2022/06/29 12:36:44;;;;;;;5.03;2.97;;;27.90;99.90;;;;;;4955201;28;20272;-78
2022/06/29 12:39:12;;;;;;;5.45;2.85;;;28.10;99.90;;;;;;4957222;28;20697;-77
2022/06/29 12:41:39;;;;;;;4.45;2.92;;;28.40;99.90;;;;;;4958470;28;20218;-77
2022/06/29 12:44:09;;;;;;;4.10;3.03;;;28.50;99.90;;;;;;4954687;28;20209;-76
2022/06/29 12:46:39;;;;;;;5.72;2.67;;;28.80;99.90;;;;;;4955568;28;20227;-76
2022/06/29 12:49:06;;;;;;;3.72;2.42;;;28.80;99.90;;;;;;4949697;28;20692;-77
2022/06/29 12:51:33;;;;;;;3.45;2.42;;;28.50;99.90;;;;;;4959622;28;20236;-76
2022/06/29 12:54:00;;;;;;;3.78;2.38;;;28.50;99.90;;;;;;4953510;28;20206;-78
2022/06/29 12:56:27;;;;;;;3.83;2.40;;;28.30;99.90;;;;;;4958800;28;20240;-77
2022/06/29 12:58:54;;;;;;;2.50;2.10;;;28.30;99.90;;;;;;4961896;28;20194;-77
2022/06/29 13:01:23;;;;;;;3.58;2.75;;;28.80;99.90;;;;;;4955041;28;20240;-76
2022/06/29 13:03:50;;;;;;;2.70;2.20;;;28.90;99.90;;;;;;4956144;28;20213;-78
2022/06/29 13:06:17;;;;;;;4.20;2.17;;;29.00;99.90;;;;;;4967784;28;20217;-76
2022/06/29 13:08:45;;;;;;;6.53;2.80;;;29.00;99.90;;;;;;4959299;28;20573;-76
2022/06/29 13:11:12;;;;;;;5.93;2.63;;;28.80;99.90;;;;;;4953450;28;20262;-77
2022/06/29 13:13:40;;;;;;;3.10;2.00;;;28.80;99.90;;;;;;4953257;28;20198;-75
2022/06/29 13:16:08;;;;;;;4.50;2.60;;;28.70;99.90;;;;;;4953433;28;20230;-77
2022/06/29 13:18:37;;;;;;;4.30;2.30;;;28.50;99.90;;;;;;4962629;28;20216;-75
2022/06/29 13:21:04;;;;;;;4.38;2.28;;;28.40;99.90;;;;;;4989250;23;20233;-76
2022/06/29 13:23:31;;;;;;;4.32;2.08;;;28.20;99.90;;;;;;4957495;28;20487;-77
2022/06/29 13:25:58;;;;;;;3.22;2.08;;;28.10;99.90;;;;;;4952087;28;20217;-79
2022/06/29 13:28:27;;;;;;;3.88;2.08;;;28.10;99.90;;;;;;4966483;28;20650;-79
2022/06/29 13:30:55;;;;;;;3.25;2.17;;;28.20;99.90;;;;;;4952560;28;20303;-79
2022/06/29 13:33:22;;;;;;;3.08;1.90;;;28.50;99.90;;;;;;4940700;28;20202;-78
2022/06/29 13:35:50;;;;;;;2.65;1.90;;;28.80;99.90;;;;;;4936385;28;20685;-79
2022/06/29 13:38:17;;;;;;;2.45;1.60;;;28.80;99.90;;;;;;4935898;28;20206;-78
2022/06/29 13:40:44;;;;;;;1.92;1.40;;;28.90;99.90;;;;;;4938707;28;20226;-79
2022/06/29 13:43:12;;;;;;;2.28;1.80;;;29.30;99.90;;;;;;4937779;28;20271;-79
2022/06/29 13:45:39;;;;;;;3.08;1.90;;;29.40;99.90;;;;;;4941213;28;20202;-78
2022/06/29 13:48:07;;;;;;;2.40;1.98;;;29.30;99.90;;;;;;4935589;28;20223;-79
2022/06/29 13:50:34;;;;;;;3.10;2.00;;;29.20;99.90;;;;;;4936669;28;20222;-78
2022/06/29 13:53:02;;;;;;;3.00;1.63;;;29.10;99.90;;;;;;4935954;28;20202;-79
2022/06/29 13:55:30;;;;;;;4.07;2.38;;;29.00;99.90;;;;;;4934440;28;20504;-80
2022/06/29 13:57:57;;;;;;;4.35;2.17;;;28.90;99.90;;;;;;4939605;28;20628;-79
2022/06/29 14:00:40;;;;;;;2.47;2.25;;;28.80;99.90;;;;;;4937224;28;20206;-80
2022/06/29 14:03:07;;;;;;;4.43;2.47;;;28.70;99.90;;;;;;4944120;28;20225;-79